sensor_id;sensor_type;location;lat;lon;timestamp;pressure;altitude;pressure_sealevel;temperature;humidity
1736;BME280;865;53.672;10.250;2023-08-24T00:01:29;101268.50;;;17.79;100.00
1736;BME280;865;53.672;10.250;2023-08-24T00:03:55;101263.31;;;17.76;100.00
1736;BME280;865;53.672;10.250;2023-08-24T00:06:22;101266.94;;;17.95;100.00
1736;BME280;865;53.672;10.250;2023-08-24T00:08:48;101275.91;;;17.91;100.00
1736;BME280;865;53.672;10.250;2023-08-24T00:11:15;101261.66;;;17.73;100.00
1736;BME280;865;53.672;10.250;2023-08-24T00:13:42;101251.53;;;17.63;100.00
1736;BME280;865;53.672;10.250;2023-08-24T00:16:18;101249.38;;;17.72;100.00
1736;BME280;865;53.672;10.250;2023-08-24T00:18:46;101254.97;;;17.87;100.00
1736;BME280;865;53.672;10.250;2023-08-24T00:21:14;101258.41;;;17.89;100.00
1736;BME280;865;53.672;10.250;2023-08-24T00:23:43;101248.47;;;17.73;100.00
1736;BME280;865;53.672;10.250;2023-08-24T00:26:10;101238.03;;;17.70;100.00
1736;BME280;865;53.672;10.250;2023-08-24T00:28:37;101242.22;;;17.76;100.00
1736;BME280;865;53.672;10.250;2023-08-24T00:31:03;101246.59;;;17.75;100.00
1736;BME280;865;53.672;10.250;2023-08-24T00:33:30;101250.63;;;17.86;100.00
1736;BME280;865;53.672;10.250;2023-08-24T00:36:03;101234.84;;;17.62;100.00
1736;BME280;865;53.672;10.250;2023-08-24T00:38:30;101232.66;;;17.73;100.00
1736;BME280;865;53.672;10.250;2023-08-24T00:40:57;101236.06;;;17.75;100.00
1736;BME280;865;53.672;10.250;2023-08-24T00:43:26;101237.91;;;17.73;100.00
1736;BME280;865;53.672;10.250;2023-08-24T00:45:55;101234.06;;;17.60;100.00
1736;BME280;865;53.672;10.250;2023-08-24T00:48:22;101236.78;;;17.59;100.00
1736;BME280;865;53.672;10.250;2023-08-24T00:51:00;101230.13;;;17.70;100.00
1736;BME280;865;53.672;10.250;2023-08-24T00:53:28;101240.00;;;17.65;100.00
1736;BME280;865;53.672;10.250;2023-08-24T00:55:55;101236.56;;;17.63;100.00
1736;BME280;865;53.672;10.250;2023-08-24T00:58:23;101242.53;;;17.68;100.00
1736;BME280;865;53.672;10.250;2023-08-24T01:00:51;101245.84;;;17.73;100.00
1736;BME280;865;53.672;10.250;2023-08-24T01:03:21;101234.31;;;17.76;100.00
1736;BME280;865;53.672;10.250;2023-08-24T01:05:48;101231.16;;;17.66;100.00
1736;BME280;865;53.672;10.250;2023-08-24T01:08:15;101235.66;;;17.64;100.00
1736;BME280;865;53.672;10.250;2023-08-24T01:10:57;101230.66;;;17.58;100.00
1736;BME280;865;53.672;10.250;2023-08-24T01:13:47;101223.06;;;17.49;100.00
1736;BME280;865;53.672;10.250;2023-08-24T01:16:21;101216.19;;;17.46;100.00
1736;BME280;865;53.672;10.250;2023-08-24T01:18:57;101218.19;;;17.40;100.00
1736;BME280;865;53.672;10.250;2023-08-24T01:21:27;101220.34;;;17.52;100.00
1736;BME280;865;53.672;10.250;2023-08-24T01:24:14;101235.50;;;17.47;100.00
1736;BME280;865;53.672;10.250;2023-08-24T01:26:44;101235.41;;;17.48;100.00
1736;BME280;865;53.672;10.250;2023-08-24T01:29:11;101236.50;;;17.43;100.00
1736;BME280;865;53.672;10.250;2023-08-24T01:31:38;101232.16;;;17.42;100.00
1736;BME280;865;53.672;10.250;2023-08-24T01:34:04;101233.22;;;17.38;100.00
1736;BME280;865;53.672;10.250;2023-08-24T01:36:31;101233.28;;;17.36;100.00
1736;BME280;865;53.672;10.250;2023-08-24T01:39:14;101234.88;;;17.18;100.00
1736;BME280;865;53.672;10.250;2023-08-24T01:41:46;101217.66;;;17.31;100.00
1736;BME280;865;53.672;10.250;2023-08-24T01:44:18;101230.59;;;17.38;100.00
1736;BME280;865;53.672;10.250;2023-08-24T01:46:48;101234.25;;;17.34;100.00
1736;BME280;865;53.672;10.250;2023-08-24T01:49:17;101233.28;;;17.36;100.00
1736;BME280;865;53.672;10.250;2023-08-24T01:51:44;101232.16;;;17.42;100.00
1736;BME280;865;53.672;10.250;2023-08-24T01:54:12;101227.75;;;17.42;100.00
1736;BME280;865;53.672;10.250;2023-08-24T01:56:39;101229.19;;;17.29;100.00
1736;BME280;865;53.672;10.250;2023-08-24T01:59:05;101234.63;;;17.24;100.00
1736;BME280;865;53.672;10.250;2023-08-24T02:01:32;101224.06;;;17.02;100.00
1736;BME280;865;53.672;10.250;2023-08-24T02:03:58;101219.88;;;16.97;100.00
1736;BME280;865;53.672;10.250;2023-08-24T02:06:26;101222.41;;;17.00;100.00
1736;BME280;865;53.672;10.250;2023-08-24T02:08:53;101213.88;;;16.93;100.00
1736;BME280;865;53.672;10.250;2023-08-24T02:11:19;101209.09;;;16.81;100.00
1736;BME280;865;53.672;10.250;2023-08-24T02:13:46;101188.00;;;16.81;100.00
1736;BME280;865;53.672;10.250;2023-08-24T02:16:12;101193.09;;;16.85;100.00
1736;BME280;865;53.672;10.250;2023-08-24T02:18:39;101197.47;;;16.87;100.00
1736;BME280;865;53.672;10.250;2023-08-24T02:21:09;101191.16;;;16.66;100.00
1736;BME280;865;53.672;10.250;2023-08-24T02:23:38;101190.31;;;16.65;100.00
1736;BME280;865;53.672;10.250;2023-08-24T02:26:05;101183.91;;;16.49;100.00
1736;BME280;865;53.672;10.250;2023-08-24T02:28:32;101182.63;;;16.35;100.00
1736;BME280;865;53.672;10.250;2023-08-24T02:31:03;101167.06;;;16.29;100.00
1736;BME280;865;53.672;10.250;2023-08-24T02:33:30;101164.50;;;16.28;100.00
1736;BME280;865;53.672;10.250;2023-08-24T02:35:57;101167.03;;;16.31;100.00
1736;BME280;865;53.672;10.250;2023-08-24T02:38:24;101166.50;;;16.45;100.00
1736;BME280;865;53.672;10.250;2023-08-24T02:41:03;101170.16;;;16.40;100.00
1736;BME280;865;53.672;10.250;2023-08-24T02:43:30;101178.19;;;16.37;100.00
1736;BME280;865;53.672;10.250;2023-08-24T02:46:01;101167.50;;;16.42;100.00
1736;BME280;865;53.672;10.250;2023-08-24T02:48:31;101171.50;;;16.52;100.00
1736;BME280;865;53.672;10.250;2023-08-24T02:50:58;101180.66;;;16.42;100.00
1736;BME280;865;53.672;10.250;2023-08-24T02:53:25;101171.56;;;16.27;100.00
1736;BME280;865;53.672;10.250;2023-08-24T02:55:52;101169.16;;;16.21;100.00
1736;BME280;865;53.672;10.250;2023-08-24T02:58:19;101154.91;;;16.02;100.00
1736;BME280;865;53.672;10.250;2023-08-24T03:00:46;101153.31;;;15.98;100.00
1736;BME280;865;53.672;10.250;2023-08-24T03:03:14;101149.06;;;15.93;100.00
1736;BME280;865;53.672;10.250;2023-08-24T03:05:51;101145.56;;;15.93;100.00
1736;BME280;865;53.672;10.250;2023-08-24T03:08:18;101149.03;;;15.95;100.00
1736;BME280;865;53.672;10.250;2023-08-24T03:10:45;101153.94;;;16.04;100.00
1736;BME280;865;53.672;10.250;2023-08-24T03:13:11;101145.53;;;16.18;100.00
1736;BME280;865;53.672;10.250;2023-08-24T03:15:38;101155.66;;;16.30;100.00
1736;BME280;865;53.672;10.250;2023-08-24T03:18:05;101162.38;;;16.37;100.00
1736;BME280;865;53.672;10.250;2023-08-24T03:20:31;101162.91;;;16.47;100.00
1736;BME280;865;53.672;10.250;2023-08-24T03:22:58;101158.91;;;16.37;100.00
1736;BME280;865;53.672;10.250;2023-08-24T03:25:24;101150.50;;;16.27;100.00
1736;BME280;865;53.672;10.250;2023-08-24T03:27:52;101150.91;;;16.15;100.00
1736;BME280;865;53.672;10.250;2023-08-24T03:30:19;101147.06;;;16.00;100.00
1736;BME280;865;53.672;10.250;2023-08-24T03:32:45;101145.34;;;15.99;100.00
1736;BME280;865;53.672;10.250;2023-08-24T03:35:12;101138.09;;;16.06;100.00
1736;BME280;865;53.672;10.250;2023-08-24T03:37:38;101135.78;;;15.97;100.00
1736;BME280;865;53.672;10.250;2023-08-24T03:40:05;101139.13;;;16.02;100.00
1736;BME280;865;53.672;10.250;2023-08-24T03:42:33;101131.72;;;15.88;100.00
1736;BME280;865;53.672;10.250;2023-08-24T03:44:59;101120.00;;;15.97;100.00
1736;BME280;865;53.672;10.250;2023-08-24T03:47:26;101122.25;;;16.07;100.00
1736;BME280;865;53.672;10.250;2023-08-24T03:49:53;101132.81;;;16.06;100.00
1736;BME280;865;53.672;10.250;2023-08-24T03:52:19;101135.91;;;15.93;100.00
1736;BME280;865;53.672;10.250;2023-08-24T03:54:46;101132.00;;;15.80;100.00
1736;BME280;865;53.672;10.250;2023-08-24T03:57:12;101125.41;;;15.67;100.00
1736;BME280;865;53.672;10.250;2023-08-24T03:59:39;101115.06;;;15.62;100.00
1736;BME280;865;53.672;10.250;2023-08-24T04:02:05;101117.72;;;15.61;100.00
1736;BME280;865;53.672;10.250;2023-08-24T04:04:32;101116.84;;;15.62;100.00
1736;BME280;865;53.672;10.250;2023-08-24T04:06:59;101121.28;;;15.60;100.00
1736;BME280;865;53.672;10.250;2023-08-24T04:09:26;101122.44;;;15.51;100.00
1736;BME280;865;53.672;10.250;2023-08-24T04:11:53;101124.34;;;15.47;100.00
1736;BME280;865;53.672;10.250;2023-08-24T04:14:19;101120.13;;;15.42;100.00
1736;BME280;865;53.672;10.250;2023-08-24T04:16:46;101121.63;;;15.49;100.00
1736;BME280;865;53.672;10.250;2023-08-24T04:19:13;101114.56;;;15.51;100.00
1736;BME280;865;53.672;10.250;2023-08-24T04:21:40;101112.66;;;15.56;100.00
1736;BME280;865;53.672;10.250;2023-08-24T04:24:07;101118.66;;;15.60;100.00
1736;BME280;865;53.672;10.250;2023-08-24T04:26:34;101122.34;;;15.54;100.00
1736;BME280;865;53.672;10.250;2023-08-24T04:29:01;101128.22;;;15.36;100.00
1736;BME280;865;53.672;10.250;2023-08-24T04:31:27;101127.28;;;15.38;100.00
1736;BME280;865;53.672;10.250;2023-08-24T04:33:54;101134.75;;;15.50;100.00
1736;BME280;865;53.672;10.250;2023-08-24T04:36:21;101138.22;;;15.51;100.00
1736;BME280;865;53.672;10.250;2023-08-24T04:38:48;101141.09;;;15.43;100.00
1736;BME280;865;53.672;10.250;2023-08-24T04:41:15;101136.53;;;15.50;100.00
1736;BME280;865;53.672;10.250;2023-08-24T04:43:41;101149.06;;;15.42;100.00
1736;BME280;865;53.672;10.250;2023-08-24T04:46:08;101152.66;;;15.39;100.00
1736;BME280;865;53.672;10.250;2023-08-24T04:48:34;101147.63;;;15.32;100.00
1736;BME280;865;53.672;10.250;2023-08-24T04:51:01;101138.47;;;15.17;100.00
1736;BME280;865;53.672;10.250;2023-08-24T04:53:28;101133.31;;;15.14;100.00
1736;BME280;865;53.672;10.250;2023-08-24T04:55:54;101122.91;;;15.11;100.00
1736;BME280;865;53.672;10.250;2023-08-24T04:58:21;101124.66;;;15.12;100.00
1736;BME280;865;53.672;10.250;2023-08-24T05:00:48;101128.41;;;15.03;100.00
1736;BME280;865;53.672;10.250;2023-08-24T05:03:15;101122.25;;;15.04;100.00
1736;BME280;865;53.672;10.250;2023-08-24T05:05:42;101126.66;;;15.03;100.00
1736;BME280;865;53.672;10.250;2023-08-24T05:08:08;101129.19;;;15.07;100.00
1736;BME280;865;53.672;10.250;2023-08-24T05:10:39;101130.84;;;15.09;100.00
1736;BME280;865;53.672;10.250;2023-08-24T05:13:05;101129.69;;;15.18;100.00
1736;BME280;865;53.672;10.250;2023-08-24T05:15:32;101129.44;;;15.25;100.00
1736;BME280;865;53.672;10.250;2023-08-24T05:17:59;101135.19;;;15.37;100.00
1736;BME280;865;53.672;10.250;2023-08-24T05:20:26;101145.88;;;15.59;100.00
1736;BME280;865;53.672;10.250;2023-08-24T05:22:53;101147.50;;;15.88;100.00
1736;BME280;865;53.672;10.250;2023-08-24T05:25:22;101168.03;;;16.03;100.00
1736;BME280;865;53.672;10.250;2023-08-24T05:27:49;101189.84;;;16.07;100.00
1736;BME280;865;53.672;10.250;2023-08-24T05:30:17;101206.88;;;16.20;100.00
1736;BME280;865;53.672;10.250;2023-08-24T05:32:43;101219.34;;;16.40;100.00
1736;BME280;865;53.672;10.250;2023-08-24T05:35:10;101228.97;;;16.64;100.00
1736;BME280;865;53.672;10.250;2023-08-24T05:37:37;101229.56;;;16.73;100.00
1736;BME280;865;53.672;10.250;2023-08-24T05:40:04;101228.19;;;16.86;100.00
1736;BME280;865;53.672;10.250;2023-08-24T05:42:31;101237.28;;;17.01;100.00
1736;BME280;865;53.672;10.250;2023-08-24T05:44:57;101238.78;;;17.08;100.00
1736;BME280;865;53.672;10.250;2023-08-24T05:47:24;101243.25;;;17.06;100.00
1736;BME280;865;53.672;10.250;2023-08-24T05:49:50;101252.97;;;17.27;100.00
1736;BME280;865;53.672;10.250;2023-08-24T05:52:16;101267.38;;;17.41;100.00
1736;BME280;865;53.672;10.250;2023-08-24T05:54:43;101276.09;;;17.43;100.00
1736;BME280;865;53.672;10.250;2023-08-24T05:57:09;101284.69;;;17.48;100.00
1736;BME280;865;53.672;10.250;2023-08-24T05:59:36;101280.78;;;17.58;100.00
1736;BME280;865;53.672;10.250;2023-08-24T06:02:02;101284.81;;;17.67;100.00
1736;BME280;865;53.672;10.250;2023-08-24T06:04:30;101286.94;;;17.57;100.00
1736;BME280;865;53.672;10.250;2023-08-24T06:06:57;101276.72;;;17.49;100.00
1736;BME280;865;53.672;10.250;2023-08-24T06:09:23;101278.78;;;17.63;100.00
1736;BME280;865;53.672;10.250;2023-08-24T06:11:49;101273.75;;;17.57;100.00
1736;BME280;865;53.672;10.250;2023-08-24T06:14:16;101270.22;;;17.58;100.00
1736;BME280;865;53.672;10.250;2023-08-24T06:16:42;101277.19;;;17.81;100.00
1736;BME280;865;53.672;10.250;2023-08-24T06:19:09;101288.97;;;17.94;100.00
1736;BME280;865;53.672;10.250;2023-08-24T06:21:35;101288.91;;;17.96;100.00
1736;BME280;865;53.672;10.250;2023-08-24T06:24:02;101282.22;;;17.87;100.00
1736;BME280;865;53.672;10.250;2023-08-24T06:26:30;101279.81;;;18.03;100.00
1736;BME280;865;53.672;10.250;2023-08-24T06:28:56;101290.97;;;18.10;100.00
1736;BME280;865;53.672;10.250;2023-08-24T06:31:23;101295.59;;;18.25;100.00
1736;BME280;865;53.672;10.250;2023-08-24T06:33:50;101282.47;;;18.24;100.00
1736;BME280;865;53.672;10.250;2023-08-24T06:36:16;101277.66;;;18.13;100.00
1736;BME280;865;53.672;10.250;2023-08-24T06:38:43;101273.28;;;17.91;100.00
1736;BME280;865;53.672;10.250;2023-08-24T06:41:09;101268.84;;;17.92;100.00
1736;BME280;865;53.672;10.250;2023-08-24T06:43:38;101272.59;;;17.86;100.00
1736;BME280;865;53.672;10.250;2023-08-24T06:46:05;101282.25;;;18.08;100.00
1736;BME280;865;53.672;10.250;2023-08-24T06:48:35;101298.25;;;18.25;100.00
1736;BME280;865;53.672;10.250;2023-08-24T06:51:03;101290.06;;;18.31;100.00
1736;BME280;865;53.672;10.250;2023-08-24T06:53:29;101287.16;;;18.37;100.00
1736;BME280;865;53.672;10.250;2023-08-24T06:55:57;101302.53;;;18.28;100.00
1736;BME280;865;53.672;10.250;2023-08-24T06:58:24;101291.66;;;18.15;100.00
1736;BME280;865;53.672;10.250;2023-08-24T07:00:50;101289.19;;;18.10;100.00
1736;BME280;865;53.672;10.250;2023-08-24T07:03:17;101301.16;;;18.39;100.00
1736;BME280;865;53.672;10.250;2023-08-24T07:05:47;101299.75;;;18.51;100.00
1736;BME280;865;53.672;10.250;2023-08-24T07:08:14;101301.19;;;18.58;100.00
1736;BME280;865;53.672;10.250;2023-08-24T07:10:42;101304.50;;;18.43;100.00
1736;BME280;865;53.672;10.250;2023-08-24T07:13:09;101308.53;;;18.52;100.00
1736;BME280;865;53.672;10.250;2023-08-24T07:15:36;101296.06;;;18.76;100.00
1736;BME280;865;53.672;10.250;2023-08-24T07:18:03;101310.66;;;18.84;100.00
1736;BME280;865;53.672;10.250;2023-08-24T07:20:34;101311.59;;;19.02;100.00
1736;BME280;865;53.672;10.250;2023-08-24T07:23:01;101312.00;;;18.93;100.00
1736;BME280;865;53.672;10.250;2023-08-24T07:25:28;101312.16;;;18.70;100.00
1736;BME280;865;53.672;10.250;2023-08-24T07:27:55;101316.63;;;18.67;100.00
1736;BME280;865;53.672;10.250;2023-08-24T07:30:26;101324.22;;;18.56;100.00
1736;BME280;865;53.672;10.250;2023-08-24T07:33:00;101329.13;;;18.64;100.00
1736;BME280;865;53.672;10.250;2023-08-24T07:35:27;101328.94;;;18.68;100.00
1736;BME280;865;53.672;10.250;2023-08-24T07:37:54;101319.44;;;18.85;100.00
1736;BME280;865;53.672;10.250;2023-08-24T07:40:20;101316.88;;;18.83;100.00
1736;BME280;865;53.672;10.250;2023-08-24T07:42:48;101314.75;;;18.71;100.00
1736;BME280;865;53.672;10.250;2023-08-24T07:45:17;101313.81;;;18.72;100.00
1736;BME280;865;53.672;10.250;2023-08-24T07:47:43;101331.31;;;18.95;100.00
1736;BME280;865;53.672;10.250;2023-08-24T07:50:10;101323.38;;;19.33;100.00
1736;BME280;865;53.672;10.250;2023-08-24T07:52:38;101330.28;;;19.37;100.00
1736;BME280;865;53.672;10.250;2023-08-24T07:55:06;101323.09;;;19.58;100.00
1736;BME280;865;53.672;10.250;2023-08-24T07:57:34;101330.94;;;19.59;100.00
1736;BME280;865;53.672;10.250;2023-08-24T08:00:00;101324.59;;;19.64;100.00
1736;BME280;865;53.672;10.250;2023-08-24T08:02:27;101330.31;;;19.73;100.00
1736;BME280;865;53.672;10.250;2023-08-24T08:04:57;101334.91;;;19.70;100.00
1736;BME280;865;53.672;10.250;2023-08-24T08:07:27;101316.94;;;19.76;100.00
1736;BME280;865;53.672;10.250;2023-08-24T08:09:53;101324.13;;;19.92;100.00
1736;BME280;865;53.672;10.250;2023-08-24T08:12:20;101324.66;;;19.98;100.00
1736;BME280;865;53.672;10.250;2023-08-24T08:14:46;101314.03;;;20.17;100.00
1736;BME280;865;53.672;10.250;2023-08-24T08:17:13;101318.84;;;20.09;100.00
1736;BME280;865;53.672;10.250;2023-08-24T08:19:39;101317.69;;;20.15;100.00
1736;BME280;865;53.672;10.250;2023-08-24T08:22:06;101311.06;;;20.06;100.00
1736;BME280;865;53.672;10.250;2023-08-24T08:24:35;101317.22;;;20.41;100.00
1736;BME280;865;53.672;10.250;2023-08-24T08:27:02;101306.69;;;20.22;100.00
1736;BME280;865;53.672;10.250;2023-08-24T08:29:28;101313.63;;;20.25;100.00
1736;BME280;865;53.672;10.250;2023-08-24T08:31:56;101314.25;;;20.30;100.00
1736;BME280;865;53.672;10.250;2023-08-24T08:34:22;101314.56;;;20.59;100.00
1736;BME280;865;53.672;10.250;2023-08-24T08:36:49;101327.41;;;20.49;100.00
1736;BME280;865;53.672;10.250;2023-08-24T08:39:16;101310.97;;;20.60;100.00
1736;BME280;865;53.672;10.250;2023-08-24T08:41:45;101310.97;;;20.60;100.00
1736;BME280;865;53.672;10.250;2023-08-24T08:44:13;101309.44;;;20.56;100.00
1736;BME280;865;53.672;10.250;2023-08-24T08:46:42;101307.25;;;20.29;100.00
1736;BME280;865;53.672;10.250;2023-08-24T08:49:09;101300.69;;;20.54;100.00
1736;BME280;865;53.672;10.250;2023-08-24T08:51:36;101295.00;;;20.61;100.00
1736;BME280;865;53.672;10.250;2023-08-24T08:54:06;101298.22;;;20.84;100.00
1736;BME280;865;53.672;10.250;2023-08-24T08:56:33;101302.31;;;20.74;100.00
1736;BME280;865;53.672;10.250;2023-08-24T08:59:00;101299.06;;;20.84;100.00
1736;BME280;865;53.672;10.250;2023-08-24T09:01:27;101297.34;;;20.67;100.00
1736;BME280;865;53.672;10.250;2023-08-24T09:03:54;101299.56;;;20.75;100.00
1736;BME280;865;53.672;10.250;2023-08-24T09:06:23;101292.28;;;20.79;100.00
1736;BME280;865;53.672;10.250;2023-08-24T09:08:50;101296.00;;;20.92;100.00
1736;BME280;865;53.672;10.250;2023-08-24T09:11:17;101291.22;;;20.99;100.00
1736;BME280;865;53.672;10.250;2023-08-24T09:13:45;101292.00;;;21.01;100.00
1736;BME280;865;53.672;10.250;2023-08-24T09:16:11;101286.25;;;20.92;100.00
1736;BME280;865;53.672;10.250;2023-08-24T09:18:45;101292.78;;;21.19;100.00
1736;BME280;865;53.672;10.250;2023-08-24T09:21:13;101289.34;;;21.32;100.00
1736;BME280;865;53.672;10.250;2023-08-24T09:23:45;101291.44;;;21.43;100.00
1736;BME280;865;53.672;10.250;2023-08-24T09:26:14;101291.66;;;21.23;100.00
1736;BME280;865;53.672;10.250;2023-08-24T09:28:43;101298.78;;;21.06;100.00
1736;BME280;865;53.672;10.250;2023-08-24T09:31:12;101299.19;;;20.99;100.00
1736;BME280;865;53.672;10.250;2023-08-24T09:33:42;101297.81;;;21.23;100.00
1736;BME280;865;53.672;10.250;2023-08-24T09:36:08;101301.56;;;21.36;100.00
1736;BME280;865;53.672;10.250;2023-08-24T09:38:35;101309.50;;;21.52;100.00
1736;BME280;865;53.672;10.250;2023-08-24T09:41:02;101304.25;;;21.35;100.00
1736;BME280;865;53.672;10.250;2023-08-24T09:43:30;101300.06;;;21.31;100.00
1736;BME280;865;53.672;10.250;2023-08-24T09:45:57;101309.66;;;21.33;100.00
1736;BME280;865;53.672;10.250;2023-08-24T09:48:24;101303.84;;;21.27;100.00
1736;BME280;865;53.672;10.250;2023-08-24T09:50:56;101302.22;;;21.56;100.00
1736;BME280;865;53.672;10.250;2023-08-24T09:53:24;101306.25;;;21.63;100.00
1736;BME280;865;53.672;10.250;2023-08-24T09:55:55;101305.81;;;21.55;100.00
1736;BME280;865;53.672;10.250;2023-08-24T09:58:25;101292.47;;;21.41;100.00
1736;BME280;865;53.672;10.250;2023-08-24T10:00:52;101287.84;;;21.60;100.00
1736;BME280;865;53.672;10.250;2023-08-24T10:03:21;101277.50;;;21.85;100.00
1736;BME280;865;53.672;10.250;2023-08-24T10:05:52;101277.81;;;21.95;100.00
1736;BME280;865;53.672;10.250;2023-08-24T10:08:35;101266.34;;;22.25;100.00
1736;BME280;865;53.672;10.250;2023-08-24T10:11:03;101267.75;;;22.30;100.00
1736;BME280;865;53.672;10.250;2023-08-24T10:14:04;101275.00;;;22.43;100.00
1736;BME280;865;53.672;10.250;2023-08-24T10:16:35;101268.16;;;22.53;100.00
1736;BME280;865;53.672;10.250;2023-08-24T10:19:03;101255.34;;;22.74;100.00
1736;BME280;865;53.672;10.250;2023-08-24T10:21:30;101248.78;;;22.22;100.00
1736;BME280;865;53.672;10.250;2023-08-24T10:23:57;101245.78;;;22.13;100.00
1736;BME280;865;53.672;10.250;2023-08-24T10:26:24;101248.59;;;22.25;100.00
1736;BME280;865;53.672;10.250;2023-08-24T10:28:51;101248.72;;;22.52;100.00
1736;BME280;865;53.672;10.250;2023-08-24T10:31:19;101254.38;;;22.32;100.00
1736;BME280;865;53.672;10.250;2023-08-24T10:33:47;101256.94;;;22.48;100.00
1736;BME280;865;53.672;10.250;2023-08-24T10:36:14;101244.97;;;22.26;100.00
1736;BME280;865;53.672;10.250;2023-08-24T10:38:41;101221.53;;;22.33;100.00
1736;BME280;865;53.672;10.250;2023-08-24T10:41:10;101211.56;;;22.22;100.00
1736;BME280;865;53.672;10.250;2023-08-24T10:43:48;101202.94;;;22.62;100.00
1736;BME280;865;53.672;10.250;2023-08-24T10:46:15;101200.66;;;22.70;100.00
1736;BME280;865;53.672;10.250;2023-08-24T10:53:50;101211.97;;;23.15;100.00
1736;BME280;865;53.672;10.250;2023-08-24T10:56:17;101210.44;;;23.11;100.00
1736;BME280;865;53.672;10.250;2023-08-24T10:58:45;101210.66;;;23.08;100.00
1736;BME280;865;53.672;10.250;2023-08-24T11:01:18;101205.63;;;22.89;100.00
1736;BME280;865;53.672;10.250;2023-08-24T11:03:54;101195.66;;;22.92;100.00
1736;BME280;865;53.672;10.250;2023-08-24T11:06:23;101198.56;;;23.16;100.00
1736;BME280;865;53.672;10.250;2023-08-24T11:09:04;101195.44;;;23.37;100.00
1736;BME280;865;53.672;10.250;2023-08-24T11:11:30;101200.31;;;23.03;100.00
1736;BME280;865;53.672;10.250;2023-08-24T11:14:16;101193.88;;;22.79;100.00
1736;BME280;865;53.672;10.250;2023-08-24T11:16:46;101194.22;;;23.01;100.00
1736;BME280;865;53.672;10.250;2023-08-24T11:19:13;101183.69;;;23.27;100.00
1736;BME280;865;53.672;10.250;2023-08-24T11:21:42;101181.38;;;23.35;100.00
1736;BME280;865;53.672;10.250;2023-08-24T11:24:10;101171.69;;;23.34;100.00
1736;BME280;865;53.672;10.250;2023-08-24T11:26:42;101163.69;;;23.34;100.00
1736;BME280;865;53.672;10.250;2023-08-24T11:29:10;101156.28;;;23.52;100.00
1736;BME280;865;53.672;10.250;2023-08-24T11:31:37;101148.63;;;23.60;100.00
1736;BME280;865;53.672;10.250;2023-08-24T11:34:08;101146.59;;;23.63;100.00
1736;BME280;865;53.672;10.250;2023-08-24T11:36:46;101141.81;;;23.56;100.00
1736;BME280;865;53.672;10.250;2023-08-24T11:39:17;101140.97;;;23.15;100.00
1736;BME280;865;53.672;10.250;2023-08-24T11:42:05;101143.28;;;23.47;100.00
1736;BME280;865;53.672;10.250;2023-08-24T11:44:45;101147.16;;;23.69;100.00
1736;BME280;865;53.672;10.250;2023-08-24T11:47:15;101154.22;;;24.08;100.00
1736;BME280;865;53.672;10.250;2023-08-24T11:49:42;101142.44;;;24.36;100.00
1736;BME280;865;53.672;10.250;2023-08-24T11:52:09;101132.97;;;24.32;100.00
1736;BME280;865;53.672;10.250;2023-08-24T11:54:36;101134.81;;;24.06;100.00
1736;BME280;865;53.672;10.250;2023-08-24T11:57:07;101129.09;;;23.74;100.00
1736;BME280;865;53.672;10.250;2023-08-24T11:59:36;101107.97;;;23.83;100.00
1736;BME280;865;53.672;10.250;2023-08-24T12:02:03;101106.66;;;23.63;100.00
1736;BME280;865;53.672;10.250;2023-08-24T12:04:41;101102.22;;;23.90;100.00
1736;BME280;865;53.672;10.250;2023-08-24T12:07:13;101097.94;;;23.87;100.00
1736;BME280;865;53.672;10.250;2023-08-24T12:09:40;101098.25;;;23.70;100.00
1736;BME280;865;53.672;10.250;2023-08-24T12:12:14;101081.13;;;23.86;100.00
1736;BME280;865;53.672;10.250;2023-08-24T12:14:42;101083.22;;;23.56;100.00
1736;BME280;865;53.672;10.250;2023-08-24T12:17:09;101077.56;;;23.48;100.00
1736;BME280;865;53.672;10.250;2023-08-24T12:19:36;101070.84;;;23.67;100.00
1736;BME280;865;53.672;10.250;2023-08-24T12:22:03;101070.00;;;23.67;100.00
1736;BME280;865;53.672;10.250;2023-08-24T12:24:29;101067.69;;;23.75;100.00
1736;BME280;865;53.672;10.250;2023-08-24T12:26:56;101067.88;;;24.10;100.00
1736;BME280;865;53.672;10.250;2023-08-24T12:29:24;101071.13;;;24.27;100.00
1736;BME280;865;53.672;10.250;2023-08-24T12:31:50;101067.19;;;24.45;100.00
1736;BME280;865;53.672;10.250;2023-08-24T12:34:17;101069.66;;;24.23;100.00
1736;BME280;865;53.672;10.250;2023-08-24T12:36:44;101065.94;;;24.13;100.00
1736;BME280;865;53.672;10.250;2023-08-24T12:39:11;101059.72;;;24.25;100.00
1736;BME280;865;53.672;10.250;2023-08-24T12:41:44;101063.91;;;24.03;100.00
1736;BME280;865;53.672;10.250;2023-08-24T12:44:11;101068.19;;;24.06;100.00
1736;BME280;865;53.672;10.250;2023-08-24T12:46:40;101072.50;;;23.83;100.00
1736;BME280;865;53.672;10.250;2023-08-24T12:49:07;101062.25;;;23.77;100.00
1736;BME280;865;53.672;10.250;2023-08-24T12:51:34;101065.44;;;23.95;100.00
1736;BME280;865;53.672;10.250;2023-08-24T12:54:00;101056.88;;;24.02;100.00
1736;BME280;865;53.672;10.250;2023-08-24T12:56:27;101047.56;;;24.21;100.00
1736;BME280;865;53.672;10.250;2023-08-24T12:58:53;101031.56;;;24.21;100.00
1736;BME280;865;53.672;10.250;2023-08-24T13:01:21;101020.28;;;24.17;100.00
1736;BME280;865;53.672;10.250;2023-08-24T13:03:48;101018.00;;;24.24;100.00
1736;BME280;865;53.672;10.250;2023-08-24T13:06:14;101002.78;;;24.26;100.00
1736;BME280;865;53.672;10.250;2023-08-24T13:08:52;100998.34;;;24.38;100.00
1736;BME280;865;53.672;10.250;2023-08-24T13:11:18;100983.50;;;24.46;100.00